Time;durP1;ratioP1;P1;durP2;ratioP2;P2;SDS_P1;SDS_P2;PMS_P1;PMS_P2;Temp;Humidity;BMP_temperature;BMP_pressure;BME280_temperature;BME280_humidity;BME280_pressure;Samples;Min_cycle;Max_cycle;Signal;HPM_P1;HPM_P2
2022/05/23 00:00:22;;;;;;;9.88;5.68;;;;;;;;;;4977162;28;20478;-81
2022/05/23 00:02:48;;;;;;;7.10;5.35;;;;;;;;;;4977030;28;20371;-81
2022/05/23 00:05:15;;;;;;;6.97;5.60;;;;;;;;;;4977142;28;20031;-81
2022/05/23 00:07:46;;;;;;;8.73;5.85;;;;;;;;;;4977140;28;20078;-81
2022/05/23 00:10:14;;;;;;;7.72;5.15;;;;;;;;;;4959537;28;20030;-81
2022/05/23 00:12:40;;;;;;;6.35;5.38;;;;;;;;;;4976958;28;20035;-80
2022/05/23 00:15:08;;;;;;;8.25;5.25;;;;;;;;;;4977271;28;20074;-81
2022/05/23 00:17:35;;;;;;;7.18;5.43;;;;;;;;;;4976746;28;20106;-80
2022/05/23 00:20:02;;;;;;;7.05;5.25;;;;;;;;;;4976685;28;20367;-81
2022/05/23 00:22:28;;;;;;;9.73;5.85;;;;;;;;;;4977034;28;20030;-81
2022/05/23 00:24:53;;;;;;;8.20;5.53;;;;;;;;;;4977076;28;20106;-81
2022/05/23 00:27:21;;;;;;;8.15;5.40;;;;;;;;;;4976681;28;20026;-80
2022/05/23 00:29:47;;;;;;;7.45;5.05;;;;;;;;;;4976630;28;20033;-80
2022/05/23 00:37:41;;;;;;;8.00;5.20;;;;;;;;;;4976493;28;20057;-81
2022/05/23 00:40:09;;;;;;;7.40;4.95;;;;;;;;;;4976530;28;20462;-81
2022/05/23 00:45:20;;;;;;;8.10;5.22;;;;;;;;;;4976479;28;20541;-80
2022/05/23 00:47:46;;;;;;;8.30;5.55;;;;;;;;;;4976375;28;20023;-80
2022/05/23 00:50:17;;;;;;;9.57;5.50;;;;;;;;;;4970193;28;20039;-80
2022/05/23 00:52:54;;;;;;;6.32;5.10;;;;;;;;;;4963461;28;20031;-81
2022/05/23 00:55:24;;;;;;;9.40;5.10;;;;;;;;;;4956786;28;20166;-80
2022/05/23 00:57:52;;;;;;;7.88;4.88;;;;;;;;;;4957073;28;20066;-80
2022/05/23 01:00:18;;;;;;;6.72;5.28;;;;;;;;;;4956890;29;20036;-80
2022/05/23 01:02:51;;;;;;;8.65;5.05;;;;;;;;;;4974393;28;20038;-81
2022/05/23 01:05:16;;;;;;;7.80;5.47;;;;;;;;;;4975756;28;20023;-80
2022/05/23 01:07:42;;;;;;;8.15;5.10;;;;;;;;;;4972280;28;20367;-81
2022/05/23 01:10:09;;;;;;;9.32;5.13;;;;;;;;;;4961891;28;20019;-81
2022/05/23 01:12:36;;;;;;;7.78;5.15;;;;;;;;;;4956577;29;20023;-81
2022/05/23 01:15:03;;;;;;;8.65;5.53;;;;;;;;;;4957021;28;20033;-81
2022/05/23 01:17:29;;;;;;;6.38;4.65;;;;;;;;;;4956466;29;20525;-81
2022/05/23 01:19:55;;;;;;;7.05;4.88;;;;;;;;;;4956720;28;20023;-80
2022/05/23 01:22:51;;;;;;;8.40;5.53;;;;;;;;;;4956367;28;20049;-80
2022/05/23 01:25:23;;;;;;;7.32;5.10;;;;;;;;;;4956385;28;20122;-80
2022/05/23 01:27:50;;;;;;;5.28;4.78;;;;;;;;;;4956345;29;20050;-80
2022/05/23 01:30:16;;;;;;;6.53;4.57;;;;;;;;;;4956223;29;20430;-80
2022/05/23 01:32:42;;;;;;;7.68;5.43;;;;;;;;;;4956214;28;20094;-80
2022/05/23 01:35:09;;;;;;;6.15;4.90;;;;;;;;;;4956132;28;20031;-80
2022/05/23 01:37:35;;;;;;;7.55;4.75;;;;;;;;;;4938878;29;20058;-80
2022/05/23 01:40:01;;;;;;;9.68;5.63;;;;;;;;;;4958341;28;20053;-80
2022/05/23 01:42:26;;;;;;;5.80;4.90;;;;;;;;;;4955889;29;20023;-80
2022/05/23 01:44:52;;;;;;;7.00;5.07;;;;;;;;;;4938914;29;20561;-80
2022/05/23 01:47:20;;;;;;;8.55;5.40;;;;;;;;;;4956234;28;20038;-80
2022/05/23 01:49:46;;;;;;;6.28;5.32;;;;;;;;;;4955949;29;20084;-80
2022/05/23 01:52:12;;;;;;;8.77;5.60;;;;;;;;;;4973204;28;20450;-80
2022/05/23 01:54:38;;;;;;;5.90;4.97;;;;;;;;;;4967880;28;20085;-80
2022/05/23 01:57:05;;;;;;;7.03;5.60;;;;;;;;;;4970502;28;20046;-80
2022/05/23 02:02:15;;;;;;;7.00;5.60;;;;;;;;;;4974997;28;20041;-80
2022/05/23 02:04:42;;;;;;;8.05;5.85;;;;;;;;;;4975118;28;20371;-80
2022/05/23 02:07:07;;;;;;;12.27;5.68;;;;;;;;;;4974701;28;20027;-80
2022/05/23 02:09:33;;;;;;;13.95;5.13;;;;;;;;;;4975155;28;20386;-81
2022/05/23 02:11:59;;;;;;;8.57;5.28;;;;;;;;;;4974972;28;20035;-80
2022/05/23 02:14:25;;;;;;;6.85;5.78;;;;;;;;;;4974198;28;20490;-80
2022/05/23 02:16:50;;;;;;;8.85;5.43;;;;;;;;;;4974675;28;20027;-80
2022/05/23 02:19:16;;;;;;;7.65;5.50;;;;;;;;;;4974767;28;20517;-80
2022/05/23 02:21:41;;;;;;;8.30;5.28;;;;;;;;;;4957460;28;20382;-80
2022/05/23 02:24:07;;;;;;;13.25;5.35;;;;;;;;;;4957524;28;20105;-80
2022/05/23 02:26:33;;;;;;;8.90;5.03;;;;;;;;;;4974720;28;20063;-80
2022/05/23 02:28:59;;;;;;;6.93;5.22;;;;;;;;;;4974892;28;20038;-80
2022/05/23 02:31:26;;;;;;;7.32;5.78;;;;;;;;;;4974514;28;20026;-80
2022/05/23 02:33:52;;;;;;;7.53;5.95;;;;;;;;;;4974706;28;20117;-80
2022/05/23 02:36:17;;;;;;;8.13;5.57;;;;;;;;;;4974722;28;20063;-80
2022/05/23 02:38:43;;;;;;;9.93;5.20;;;;;;;;;;4974752;28;20466;-80
2022/05/23 02:41:09;;;;;;;6.90;5.53;;;;;;;;;;4974656;28;20094;-80
2022/05/23 02:43:34;;;;;;;11.60;5.80;;;;;;;;;;4974309;28;20023;-80
2022/05/23 02:46:00;;;;;;;7.25;5.95;;;;;;;;;;4974401;28;20536;-80
2022/05/23 02:48:25;;;;;;;8.43;5.88;;;;;;;;;;4974963;28;20033;-81
2022/05/23 02:50:50;;;;;;;6.80;5.85;;;;;;;;;;4974714;28;20158;-80
2022/05/23 02:53:16;;;;;;;7.55;5.50;;;;;;;;;;4974386;28;20030;-80
2022/05/23 02:55:41;;;;;;;6.65;5.50;;;;;;;;;;4974406;28;20070;-80
2022/05/23 02:58:07;;;;;;;13.10;6.47;;;;;;;;;;4974686;28;20045;-80
2022/05/23 03:00:34;;;;;;;7.63;5.80;;;;;;;;;;4974447;28;20042;-80
2022/05/23 03:03:02;;;;;;;9.45;6.10;;;;;;;;;;4974407;28;20031;-80
2022/05/23 03:05:36;;;;;;;6.35;5.75;;;;;;;;;;4974470;28;20027;-80
2022/05/23 03:08:02;;;;;;;9.10;5.95;;;;;;;;;;4957077;28;20031;-80
2022/05/23 03:10:27;;;;;;;7.32;5.97;;;;;;;;;;4974209;28;20181;-80
2022/05/23 03:12:53;;;;;;;9.77;5.75;;;;;;;;;;4974772;28;20529;-80
2022/05/23 03:15:18;;;;;;;8.73;5.78;;;;;;;;;;4974232;28;20030;-80
2022/05/23 03:17:44;;;;;;;6.70;5.90;;;;;;;;;;4974416;28;20033;-80
2022/05/23 03:20:11;;;;;;;9.02;5.60;;;;;;;;;;4974386;28;20027;-80
2022/05/23 03:28:05;;;;;;;9.77;5.32;;;;;;;;;;4977899;28;20034;-80
2022/05/23 03:30:31;;;;;;;10.02;5.68;;;;;;;;;;4977912;28;20027;-80
2022/05/23 03:32:59;;;;;;;6.85;5.55;;;;;;;;;;4977585;28;20023;-80
2022/05/23 03:35:27;;;;;;;6.97;5.13;;;;;;;;;;4977961;28;20081;-80
2022/05/23 03:37:52;;;;;;;8.40;5.68;;;;;;;;;;4977537;28;20030;-80
2022/05/23 03:40:18;;;;;;;6.03;5.28;;;;;;;;;;4977492;28;20026;-80
2022/05/23 03:42:44;;;;;;;9.60;5.70;;;;;;;;;;4977436;28;20035;-80
2022/05/23 03:45:10;;;;;;;6.82;5.47;;;;;;;;;;4977552;28;20033;-80
2022/05/23 03:47:35;;;;;;;9.27;5.85;;;;;;;;;;4977391;28;20529;-80
2022/05/23 03:50:00;;;;;;;6.35;5.45;;;;;;;;;;4960234;28;20031;-80
2022/05/23 03:52:26;;;;;;;5.85;5.28;;;;;;;;;;4977394;28;20633;-80
2022/05/23 03:54:51;;;;;;;8.40;5.72;;;;;;;;;;4977305;28;20061;-80
2022/05/23 03:57:17;;;;;;;6.78;6.07;;;;;;;;;;4977057;28;20047;-80
2022/05/23 03:59:45;;;;;;;7.82;5.90;;;;;;;;;;4977301;28;20110;-80
2022/05/23 04:02:11;;;;;;;7.85;5.93;;;;;;;;;;4977006;28;20039;-80
2022/05/23 04:04:37;;;;;;;11.40;6.00;;;;;;;;;;4977051;28;20022;-80
2022/05/23 04:07:04;;;;;;;6.15;5.20;;;;;;;;;;4976988;28;20367;-80
2022/05/23 04:09:31;;;;;;;7.25;5.68;;;;;;;;;;4976883;28;20117;-80
2022/05/23 04:11:57;;;;;;;7.93;5.45;;;;;;;;;;4977119;28;20054;-80
2022/05/23 04:14:25;;;;;;;7.93;5.28;;;;;;;;;;4976936;28;20359;-80
2022/05/23 04:16:52;;;;;;;9.18;5.10;;;;;;;;;;4976998;28;20066;-80
2022/05/23 04:19:18;;;;;;;9.50;5.72;;;;;;;;;;4976772;28;20375;-80
2022/05/23 04:21:45;;;;;;;6.60;5.25;;;;;;;;;;4976601;28;20058;-81
2022/05/23 04:24:13;;;;;;;7.72;5.82;;;;;;;;;;4976765;28;20525;-80
2022/05/23 04:26:38;;;;;;;5.32;4.82;;;;;;;;;;4959265;28;20066;-80
2022/05/23 04:29:08;;;;;;;7.97;5.25;;;;;;;;;;4976972;28;20061;-81
2022/05/23 04:31:35;;;;;;;7.68;5.20;;;;;;;;;;4953156;28;20471;-79
2022/05/23 04:36:47;;;;;;;9.70;5.07;;;;;;;;;;4957295;28;20090;-86
2022/05/23 04:39:12;;;;;;;8.30;5.43;;;;;;;;;;4957081;28;20030;-87
2022/05/23 04:41:37;;;;;;;6.53;5.10;;;;;;;;;;4961648;28;20106;-85
2022/05/23 04:44:03;;;;;;;9.32;5.70;;;;;;;;;;4970573;28;20043;-83
2022/05/23 04:46:29;;;;;;;7.68;5.47;;;;;;;;;;4976266;28;20062;-83
2022/05/23 04:51:39;;;;;;;8.35;5.15;;;;;;;;;;4976435;28;20042;-83
2022/05/23 04:54:05;;;;;;;13.02;6.25;;;;;;;;;;4976286;28;20038;-82
2022/05/23 04:56:31;;;;;;;6.88;4.97;;;;;;;;;;4975989;28;20050;-82
2022/05/23 04:58:57;;;;;;;8.85;5.38;;;;;;;;;;4976180;28;20034;-82
2022/05/23 05:01:23;;;;;;;7.60;5.20;;;;;;;;;;4975863;28;20061;-85
2022/05/23 05:03:52;;;;;;;8.65;5.57;;;;;;;;;;4976307;28;20034;-83
2022/05/23 05:06:22;;;;;;;10.25;5.80;;;;;;;;;;4975887;28;20050;-85
2022/05/23 05:08:48;;;;;;;6.70;4.70;;;;;;;;;;4976033;28;20425;-83
2022/05/23 05:11:14;;;;;;;9.40;5.35;;;;;;;;;;4976117;28;20019;-86
2022/05/23 05:13:40;;;;;;;10.25;5.60;;;;;;;;;;4975481;28;20037;-86
2022/05/23 05:16:07;;;;;;;9.82;5.50;;;;;;;;;;4975639;28;20030;-86
2022/05/23 05:18:33;;;;;;;12.48;5.88;;;;;;;;;;4975663;28;20549;-83
2022/05/23 05:21:17;;;;;;;6.40;4.97;;;;;;;;;;4958407;28;20027;-85
2022/05/23 05:23:42;;;;;;;8.90;6.03;;;;;;;;;;4975600;28;20015;-86
2022/05/23 05:26:08;;;;;;;11.27;5.20;;;;;;;;;;4975536;28;20030;-86
2022/05/23 05:28:33;;;;;;;8.50;6.05;;;;;;;;;;4975396;28;20037;-85
2022/05/23 05:31:06;;;;;;;13.35;5.55;;;;;;;;;;4975681;28;20405;-85
2022/05/23 05:33:37;;;;;;;11.27;6.65;;;;;;;;;;4975561;28;20023;-85
2022/05/23 05:36:15;;;;;;;7.75;6.63;;;;;;;;;;4975446;28;20022;-84
2022/05/23 05:38:49;;;;;;;11.80;5.88;;;;;;;;;;4975449;28;20031;-85
2022/05/23 05:41:19;;;;;;;11.73;6.07;;;;;;;;;;4975190;28;20077;-83
2022/05/23 05:44:02;;;;;;;8.63;5.88;;;;;;;;;;4975244;28;20027;-85
2022/05/23 05:46:41;;;;;;;8.73;5.30;;;;;;;;;;4975054;28;20470;-85
2022/05/23 05:49:20;;;;;;;11.68;6.03;;;;;;;;;;4974627;28;20023;-85
2022/05/23 05:51:50;;;;;;;9.77;5.60;;;;;;;;;;4975005;28;20023;-85
2022/05/23 05:54:21;;;;;;;10.35;6.05;;;;;;;;;;4974972;28;20023;-81
2022/05/23 05:56:48;;;;;;;7.55;5.80;;;;;;;;;;4974874;28;20121;-84
2022/05/23 05:59:14;;;;;;;8.50;5.85;;;;;;;;;;4975053;28;20085;-82
2022/05/23 06:01:42;;;;;;;9.75;5.78;;;;;;;;;;4974983;28;20031;-82
2022/05/23 06:04:08;;;;;;;11.13;4.90;;;;;;;;;;4975151;28;20023;-82
2022/05/23 06:12:02;;;;;;;12.25;5.00;;;;;;;;;;4975208;28;20137;-85
2022/05/23 06:14:27;;;;;;;9.52;4.93;;;;;;;;;;4974977;28;20041;-85
2022/05/23 06:16:53;;;;;;;11.02;5.50;;;;;;;;;;4975025;28;20466;-85
2022/05/23 06:19:20;;;;;;;7.70;5.03;;;;;;;;;;4974837;28;20031;-84
2022/05/23 06:21:45;;;;;;;8.85;4.75;;;;;;;;;;4974782;28;20054;-83
2022/05/23 06:24:12;;;;;;;9.75;5.68;;;;;;;;;;4975010;28;20035;-81
2022/05/23 06:26:38;;;;;;;10.52;5.00;;;;;;;;;;4974822;28;20034;-79
2022/05/23 06:29:04;;;;;;;10.13;5.40;;;;;;;;;;4974508;28;20485;-80
2022/05/23 06:31:29;;;;;;;9.40;4.97;;;;;;;;;;4974583;28;20025;-80
2022/05/23 06:33:55;;;;;;;11.20;5.75;;;;;;;;;;4974650;28;20023;-79
2022/05/23 06:36:21;;;;;;;14.35;8.13;;;;;;;;;;4974947;28;20038;-80
2022/05/23 06:38:47;;;;;;;11.15;5.20;;;;;;;;;;4974673;28;20019;-81
2022/05/23 06:41:14;;;;;;;11.52;5.00;;;;;;;;;;4974368;28;20038;-80
2022/05/23 06:43:41;;;;;;;7.72;4.93;;;;;;;;;;4974687;28;20533;-81
2022/05/23 06:46:07;;;;;;;9.57;4.85;;;;;;;;;;4957202;28;20077;-81
2022/05/23 06:48:34;;;;;;;5.93;5.32;;;;;;;;;;4957245;28;20465;-81
2022/05/23 06:50:59;;;;;;;8.25;5.30;;;;;;;;;;4957323;28;20018;-80
2022/05/23 06:53:27;;;;;;;9.07;4.43;;;;;;;;;;4974472;28;20065;-80
2022/05/23 06:55:53;;;;;;;11.30;4.90;;;;;;;;;;4974578;28;20050;-80
2022/05/23 06:58:21;;;;;;;8.32;5.35;;;;;;;;;;4974400;28;20492;-79
2022/05/23 07:00:48;;;;;;;8.93;5.00;;;;;;;;;;4975429;28;20537;-80
2022/05/23 07:03:14;;;;;;;9.20;4.63;;;;;;;;;;4945072;28;20114;-78
2022/05/23 07:13:55;;;;;;;8.90;4.68;;;;;;;;;;4959054;28;20041;-77
2022/05/23 07:16:22;;;;;;;8.70;4.20;;;;;;;;;;4958839;29;20073;-77
2022/05/23 07:18:47;;;;;;;7.63;4.82;;;;;;;;;;4958607;29;20379;-77
2022/05/23 07:21:13;;;;;;;7.60;4.82;;;;;;;;;;4958345;28;20027;-78
2022/05/23 07:23:39;;;;;;;7.13;4.18;;;;;;;;;;4965029;28;20386;-79
2022/05/23 07:26:09;;;;;;;5.82;4.38;;;;;;;;;;4977865;28;20027;-77
2022/05/23 07:28:35;;;;;;;7.65;4.25;;;;;;;;;;4977771;28;20371;-78
2022/05/23 07:31:02;;;;;;;9.02;4.15;;;;;;;;;;4977831;28;20030;-79
2022/05/23 07:33:28;;;;;;;9.77;4.50;;;;;;;;;;4960088;28;20019;-79
2022/05/23 07:35:59;;;;;;;7.88;4.43;;;;;;;;;;4977532;28;20031;-79
2022/05/23 07:38:25;;;;;;;11.02;4.50;;;;;;;;;;4960296;28;20154;-85
2022/05/23 07:40:52;;;;;;;5.68;4.15;;;;;;;;;;4951051;29;20067;-87
2022/05/23 07:43:18;;;;;;;8.93;4.68;;;;;;;;;;4958376;29;20035;-85
2022/05/23 07:45:45;;;;;;;9.23;4.60;;;;;;;;;;4958765;28;20106;-88
2022/05/23 07:48:10;;;;;;;6.90;4.05;;;;;;;;;;4959064;29;20031;-85
2022/05/23 10:16:42;;;;;;;10.63;5.78;;;;;;;;;;4890736;29;20067;-84
2022/05/23 10:19:10;;;;;;;8.82;6.20;;;;;;;;;;4898498;29;20040;-84
2022/05/23 10:21:38;;;;;;;10.88;6.65;;;;;;;;;;4898489;29;20028;-84
2022/05/23 10:24:18;;;;;;;11.73;6.72;;;;;;;;;;4898001;29;20036;-84
2022/05/23 10:26:51;;;;;;;11.10;6.93;;;;;;;;;;4917195;29;20032;-84
2022/05/23 10:29:39;;;;;;;8.43;6.38;;;;;;;;;;4916219;29;20084;-84
2022/05/23 10:32:07;;;;;;;8.48;6.30;;;;;;;;;;4917123;29;20074;-84
2022/05/23 10:34:41;;;;;;;9.00;6.68;;;;;;;;;;4917210;29;20083;-85
2022/05/23 10:37:16;;;;;;;9.35;7.25;;;;;;;;;;4923792;29;20047;-85
2022/05/23 10:43:14;;;;;;;9.70;7.15;;;;;;;;;;4924141;29;20140;-85
2022/05/23 10:45:47;;;;;;;10.18;7.28;;;;;;;;;;4920211;29;20040;-88
2022/05/23 10:48:39;;;;;;;10.00;8.95;;;;;;;;;;4920617;29;20052;-85
2022/05/23 10:51:35;;;;;;;9.25;7.95;;;;;;;;;;4916685;29;20043;-84
2022/05/23 10:54:45;;;;;;;12.45;11.15;;;;;;;;;;4922839;29;20027;-85
2022/05/23 10:57:22;;;;;;;13.63;12.30;;;;;;;;;;4846634;29;20058;-84
2022/05/23 11:00:02;;;;;;;13.90;11.98;;;;;;;;;;4846625;29;20033;-84
2022/05/23 11:02:43;;;;;;;18.15;15.23;;;;;;;;;;4897947;29;20047;-84
2022/05/23 11:05:32;;;;;;;30.77;16.95;;;;;;;;;;4923408;29;20028;-87
2022/05/23 11:08:07;;;;;;;17.73;14.90;;;;;;;;;;4923294;29;20060;-85
2022/05/23 11:10:36;;;;;;;19.02;17.10;;;;;;;;;;4921990;29;20039;-85
2022/05/23 11:13:16;;;;;;;17.80;15.23;;;;;;;;;;4923279;29;20034;-84
2022/05/23 11:15:50;;;;;;;21.20;17.55;;;;;;;;;;4923311;29;20509;-83
2022/05/23 11:18:37;;;;;;;18.20;16.42;;;;;;;;;;4923123;29;20123;-84
2022/05/23 11:21:10;;;;;;;17.92;15.07;;;;;;;;;;4921657;29;20028;-83
2022/05/23 11:23:53;;;;;;;17.92;15.85;;;;;;;;;;4922866;29;20038;-83
2022/05/23 11:26:30;;;;;;;22.60;18.35;;;;;;;;;;4922982;29;20088;-84
2022/05/23 11:34:55;;;;;;;24.60;19.70;;;;;;;;;;4923157;29;20088;-85
2022/05/23 11:40:02;;;;;;;24.35;21.75;;;;;;;;;;4923016;29;20024;-85
2022/05/23 11:42:53;;;;;;;18.90;17.13;;;;;;;;;;4922790;29;20024;-85
2022/05/23 14:23:26;;;;;;;21.75;16.67;;;;;;;;;;4940562;23;20047;-90
2022/05/23 14:25:55;;;;;;;17.75;15.55;;;;;;;;;;4932351;29;20050;-87
2022/05/23 14:28:26;;;;;;;16.73;14.77;;;;;;;;;;4955291;29;20046;-87
2022/05/23 14:30:55;;;;;;;18.50;16.55;;;;;;;;;;4955271;29;20031;-87
2022/05/23 14:33:37;;;;;;;19.15;17.13;;;;;;;;;;4955389;29;20031;-89
2022/05/23 14:36:24;;;;;;;18.98;17.00;;;;;;;;;;4955299;29;20043;-85
2022/05/23 14:38:59;;;;;;;20.92;17.45;;;;;;;;;;4938440;29;20027;-89
2022/05/23 14:41:31;;;;;;;18.63;16.67;;;;;;;;;;4955193;29;20087;-87
2022/05/23 14:43:57;;;;;;;20.58;17.85;;;;;;;;;;4937742;29;20034;-90
2022/05/23 14:46:28;;;;;;;24.50;17.25;;;;;;;;;;4955270;29;20031;-91
2022/05/23 14:49:05;;;;;;;18.90;16.45;;;;;;;;;;4955168;29;20036;-86
2022/05/23 14:51:42;;;;;;;19.73;17.63;;;;;;;;;;4955260;29;20104;-89
2022/05/23 14:56:58;;;;;;;21.67;19.33;;;;;;;;;;4955149;29;20386;-87
2022/05/23 15:02:47;;;;;;;24.25;20.20;;;;;;;;;;4955263;29;20505;-86
2022/05/23 15:05:13;;;;;;;21.90;19.63;;;;;;;;;;4937883;29;20067;-88
2022/05/23 15:07:40;;;;;;;22.35;18.85;;;;;;;;;;4954902;29;20058;-86
2022/05/23 15:10:06;;;;;;;20.75;18.38;;;;;;;;;;4940176;29;20494;-87
2022/05/23 15:12:31;;;;;;;23.73;18.48;;;;;;;;;;4916636;29;20103;-86
2022/05/23 15:14:57;;;;;;;19.65;17.65;;;;;;;;;;4916916;29;20068;-85
2022/05/23 15:17:25;;;;;;;18.55;16.60;;;;;;;;;;4899890;29;20036;-86
2022/05/23 15:19:52;;;;;;;23.02;17.70;;;;;;;;;;4916825;29;20107;-86
2022/05/23 15:22:27;;;;;;;20.77;18.55;;;;;;;;;;4918411;29;20024;-86
2022/05/23 15:24:53;;;;;;;20.05;17.67;;;;;;;;;;4903138;29;20403;-86
2022/05/23 15:27:25;;;;;;;17.08;15.43;;;;;;;;;;4920486;29;20036;-88
2022/05/23 15:29:51;;;;;;;19.77;17.73;;;;;;;;;;4920410;29;20028;-88
2022/05/23 15:32:17;;;;;;;19.25;17.02;;;;;;;;;;4931027;29;20039;-86
2022/05/23 15:34:44;;;;;;;20.38;18.17;;;;;;;;;;4940089;29;20037;-89
2022/05/23 15:37:09;;;;;;;19.05;17.05;;;;;;;;;;4938884;29;20055;-88
2022/05/23 15:39:35;;;;;;;20.92;18.73;;;;;;;;;;4939222;29;20070;-89
2022/05/23 15:42:02;;;;;;;21.65;18.95;;;;;;;;;;4922216;29;20028;-89
2022/05/23 15:44:36;;;;;;;22.25;17.77;;;;;;;;;;4939440;29;20032;-88
2022/05/23 15:47:06;;;;;;;20.38;16.95;;;;;;;;;;4939188;29;20394;-88
2022/05/23 15:49:32;;;;;;;25.20;19.10;;;;;;;;;;4938972;29;20471;-86
2022/05/23 15:51:57;;;;;;;22.75;19.42;;;;;;;;;;4939081;29;20027;-89
2022/05/23 15:54:22;;;;;;;18.88;16.98;;;;;;;;;;4938904;29;20039;-88
2022/05/23 15:56:48;;;;;;;20.30;16.98;;;;;;;;;;4939138;29;20032;-89
2022/05/23 15:59:17;;;;;;;17.27;15.60;;;;;;;;;;4938813;29;20034;-87
2022/05/23 16:01:43;;;;;;;16.50;14.85;;;;;;;;;;4938911;29;20487;-88
2022/05/23 16:04:11;;;;;;;16.85;14.98;;;;;;;;;;4938851;29;20075;-88
2022/05/23 16:06:36;;;;;;;18.45;16.58;;;;;;;;;;4938687;29;20027;-89
2022/05/23 16:09:02;;;;;;;18.23;16.05;;;;;;;;;;4938815;29;20032;-88
2022/05/23 16:11:31;;;;;;;19.40;17.40;;;;;;;;;;4921645;29;20126;-89
2022/05/23 16:14:04;;;;;;;19.42;17.02;;;;;;;;;;4938731;29;20031;-88
2022/05/23 16:16:30;;;;;;;18.00;16.10;;;;;;;;;;4934263;29;20487;-91
2022/05/23 16:18:56;;;;;;;17.75;15.88;;;;;;;;;;4938453;29;20035;-86
2022/05/23 16:21:24;;;;;;;17.58;15.65;;;;;;;;;;4938881;29;20046;-88
2022/05/23 16:23:50;;;;;;;16.75;14.95;;;;;;;;;;4938347;29;20043;-88
2022/05/23 16:26:15;;;;;;;19.65;16.35;;;;;;;;;;4938436;29;20082;-86
2022/05/23 16:28:41;;;;;;;16.67;15.05;;;;;;;;;;4938380;29;20480;-89
2022/05/23 16:31:10;;;;;;;17.70;16.02;;;;;;;;;;4938471;29;20028;-85
2022/05/23 16:39:09;;;;;;;19.20;17.15;;;;;;;;;;4938388;29;20059;-87
2022/05/23 16:41:36;;;;;;;18.83;16.60;;;;;;;;;;4938336;29;20447;-87
2022/05/23 16:44:03;;;;;;;21.17;17.38;;;;;;;;;;4938060;29;20109;-88
2022/05/23 16:46:28;;;;;;;20.48;17.10;;;;;;;;;;4938047;29;20031;-87
2022/05/23 16:48:55;;;;;;;20.63;16.55;;;;;;;;;;4938018;29;20028;-88
2022/05/23 16:51:21;;;;;;;19.05;15.38;;;;;;;;;;4938186;29;20031;-88
2022/05/23 16:53:47;;;;;;;17.23;15.40;;;;;;;;;;4938248;29;20028;-88
2022/05/23 16:56:12;;;;;;;19.77;16.83;;;;;;;;;;4937902;29;20055;-89
2022/05/23 16:58:39;;;;;;;17.95;15.50;;;;;;;;;;4938275;29;20266;-88
2022/05/23 17:01:08;;;;;;;18.20;16.33;;;;;;;;;;4937980;29;20107;-88
2022/05/23 17:03:35;;;;;;;19.73;16.23;;;;;;;;;;4920865;29;20036;-86
2022/05/23 17:06:00;;;;;;;16.40;14.50;;;;;;;;;;4937643;29;20127;-86
2022/05/23 17:08:26;;;;;;;18.75;15.23;;;;;;;;;;4937831;29;20032;-85
2022/05/23 17:10:51;;;;;;;17.80;14.95;;;;;;;;;;4937700;29;20430;-85
2022/05/23 17:13:17;;;;;;;19.63;16.40;;;;;;;;;;4937606;29;20027;-86
2022/05/23 17:15:43;;;;;;;17.52;14.65;;;;;;;;;;4937421;29;20023;-85
2022/05/23 17:18:11;;;;;;;16.67;14.82;;;;;;;;;;4937589;29;20031;-86
2022/05/23 17:20:41;;;;;;;16.50;14.48;;;;;;;;;;4937295;29;20079;-87
2022/05/23 17:23:07;;;;;;;16.63;13.60;;;;;;;;;;4919989;29;20094;-87
2022/05/23 17:25:33;;;;;;;18.75;15.57;;;;;;;;;;4920485;29;20028;-95
2022/05/23 17:27:58;;;;;;;14.00;12.52;;;;;;;;;;4923127;29;20028;-85
2022/05/23 17:30:24;;;;;;;15.23;13.40;;;;;;;;;;4937435;29;20024;-84
2022/05/23 17:32:50;;;;;;;13.73;12.40;;;;;;;;;;4937168;29;20489;-85
2022/05/23 17:35:17;;;;;;;14.43;12.93;;;;;;;;;;4920096;29;20039;-84
2022/05/23 17:37:44;;;;;;;13.75;12.38;;;;;;;;;;4938341;29;20031;-86
2022/05/23 17:40:11;;;;;;;16.17;12.77;;;;;;;;;;4938858;29;20562;-85
2022/05/23 17:42:37;;;;;;;15.13;12.65;;;;;;;;;;4920449;29;20060;-86
2022/05/23 17:45:04;;;;;;;15.20;12.65;;;;;;;;;;4919946;29;20031;-85
2022/05/23 17:47:29;;;;;;;14.38;10.75;;;;;;;;;;4937071;29;20044;-86
2022/05/23 17:49:56;;;;;;;11.07;9.88;;;;;;;;;;4936752;29;20023;-86
2022/05/23 17:52:22;;;;;;;12.80;9.75;;;;;;;;;;4919834;29;20079;-85
2022/05/23 17:54:48;;;;;;;13.63;9.60;;;;;;;;;;4919695;29;20024;-85
2022/05/23 17:57:13;;;;;;;13.27;10.02;;;;;;;;;;4936964;29;20383;-85
2022/05/23 17:59:39;;;;;;;9.93;8.40;;;;;;;;;;4919537;29;20486;-84
2022/05/23 18:02:04;;;;;;;12.88;9.18;;;;;;;;;;4936990;29;20051;-84
2022/05/23 18:04:30;;;;;;;13.65;8.98;;;;;;;;;;4936971;29;20525;-84
2022/05/23 18:06:56;;;;;;;12.70;8.23;;;;;;;;;;4919483;29;20506;-85
2022/05/23 18:09:21;;;;;;;11.70;8.93;;;;;;;;;;4936322;29;20028;-84
2022/05/23 18:11:47;;;;;;;10.82;8.40;;;;;;;;;;4937163;29;20359;-86
2022/05/23 18:19:41;;;;;;;10.25;8.50;;;;;;;;;;4936646;29;20042;-84
2022/05/23 18:22:08;;;;;;;13.52;9.60;;;;;;;;;;4936348;29;20463;-84
2022/05/23 18:24:33;;;;;;;16.98;8.93;;;;;;;;;;4936268;29;20095;-85
2022/05/23 18:27:00;;;;;;;10.63;8.43;;;;;;;;;;4936301;29;20116;-84
2022/05/23 18:29:25;;;;;;;11.40;8.88;;;;;;;;;;4936303;29;20028;-84
2022/05/23 18:31:51;;;;;;;13.23;8.57;;;;;;;;;;4936394;29;20031;-83
2022/05/23 18:34:21;;;;;;;9.38;8.15;;;;;;;;;;4936480;29;20083;-83
2022/05/23 18:36:48;;;;;;;12.18;8.75;;;;;;;;;;4919067;29;20035;-84
2022/05/23 18:39:14;;;;;;;11.20;8.80;;;;;;;;;;4925577;29;20028;-85
2022/05/23 18:41:41;;;;;;;11.32;8.60;;;;;;;;;;4927158;29;20028;-84
2022/05/23 18:44:09;;;;;;;12.45;8.85;;;;;;;;;;4925382;29;20031;-85
2022/05/23 18:46:35;;;;;;;10.73;8.57;;;;;;;;;;4925031;29;20035;-85
2022/05/23 18:51:45;;;;;;;10.77;9.23;;;;;;;;;;4936305;29;20088;-84
2022/05/23 18:54:12;;;;;;;14.15;9.75;;;;;;;;;;4936164;29;20027;-84
2022/05/23 18:56:38;;;;;;;12.18;9.68;;;;;;;;;;4936895;29;20478;-84
2022/05/23 18:59:04;;;;;;;10.50;9.40;;;;;;;;;;4923167;29;20034;-84
2022/05/23 19:01:30;;;;;;;9.75;8.63;;;;;;;;;;4939992;29;20064;-83
2022/05/23 19:03:56;;;;;;;9.90;8.93;;;;;;;;;;4939953;29;20106;-84
2022/05/23 19:06:22;;;;;;;11.63;9.43;;;;;;;;;;4939788;29;20114;-84
2022/05/23 19:08:48;;;;;;;10.23;8.90;;;;;;;;;;4922937;29;20024;-84
2022/05/23 19:11:16;;;;;;;12.10;9.32;;;;;;;;;;4941311;29;20054;-84
2022/05/23 19:13:41;;;;;;;13.98;9.23;;;;;;;;;;4939760;29;20028;-84
2022/05/23 19:16:07;;;;;;;12.80;9.45;;;;;;;;;;4939649;29;20034;-85
2022/05/23 19:18:32;;;;;;;11.43;9.30;;;;;;;;;;4922550;29;20028;-85
2022/05/23 19:20:59;;;;;;;10.10;8.93;;;;;;;;;;4939307;29;20035;-84
2022/05/23 19:23:25;;;;;;;13.98;9.85;;;;;;;;;;4939501;29;20048;-86
2022/05/23 19:25:55;;;;;;;11.27;9.45;;;;;;;;;;4939557;29;20384;-86
2022/05/23 19:28:23;;;;;;;10.77;8.88;;;;;;;;;;4939511;29;20031;-88
2022/05/23 19:30:49;;;;;;;11.63;9.55;;;;;;;;;;4939225;29;20083;-87
2022/05/23 19:33:14;;;;;;;10.73;8.73;;;;;;;;;;4939538;29;20114;-88
2022/05/23 19:35:41;;;;;;;10.15;9.05;;;;;;;;;;4939533;29;20051;-87
2022/05/23 19:38:11;;;;;;;12.43;8.93;;;;;;;;;;4939408;29;20027;-87
2022/05/23 19:40:38;;;;;;;10.05;8.88;;;;;;;;;;4939595;29;20446;-92
2022/05/23 19:43:05;;;;;;;11.45;8.98;;;;;;;;;;4922366;29;20431;-84
2022/05/23 19:45:31;;;;;;;12.82;9.18;;;;;;;;;;4939130;29;20027;-82
2022/05/23 19:47:57;;;;;;;13.90;9.95;;;;;;;;;;4939278;29;20039;-85
2022/05/23 19:50:23;;;;;;;12.40;9.02;;;;;;;;;;4939193;29;20140;-86
2022/05/23 19:52:49;;;;;;;10.27;9.10;;;;;;;;;;4921999;29;20432;-85
2022/05/23 19:55:19;;;;;;;9.75;8.80;;;;;;;;;;4938835;29;20031;-87
2022/05/23 19:57:45;;;;;;;12.48;9.13;;;;;;;;;;4938828;29;20083;-86
2022/05/23 20:00:12;;;;;;;10.65;8.60;;;;;;;;;;4938956;29;20069;-86
2022/05/23 20:08:17;;;;;;;11.75;9.23;;;;;;;;;;4938783;29;20412;-87
2022/05/23 20:10:43;;;;;;;11.35;9.20;;;;;;;;;;4939248;29;20054;-86
2022/05/23 20:13:08;;;;;;;12.77;9.32;;;;;;;;;;4939255;29;20383;-86
2022/05/23 20:15:35;;;;;;;9.93;8.93;;;;;;;;;;4938853;29;20035;-86
2022/05/23 20:18:07;;;;;;;11.55;9.35;;;;;;;;;;4938852;29;20031;-87
2022/05/23 20:20:37;;;;;;;10.38;9.25;;;;;;;;;;4938838;29;20040;-87
2022/05/23 20:23:02;;;;;;;10.30;9.10;;;;;;;;;;4938573;29;20036;-86
2022/05/23 20:25:30;;;;;;;9.65;8.75;;;;;;;;;;4921299;29;20024;-85
2022/05/23 20:27:56;;;;;;;10.10;9.20;;;;;;;;;;4938738;29;20059;-85
2022/05/23 20:30:26;;;;;;;10.20;9.25;;;;;;;;;;4938496;29;20451;-80
2022/05/23 20:32:55;;;;;;;11.13;9.80;;;;;;;;;;4938280;29;20494;-80
2022/05/23 20:35:22;;;;;;;11.82;9.52;;;;;;;;;;4938195;29;20035;-81
2022/05/23 20:37:48;;;;;;;10.52;9.32;;;;;;;;;;4938573;29;20029;-85
2022/05/23 20:40:14;;;;;;;12.68;9.70;;;;;;;;;;4938217;29;20023;-83
2022/05/23 20:42:40;;;;;;;14.52;9.73;;;;;;;;;;4938498;29;20097;-81
2022/05/23 20:45:07;;;;;;;11.75;9.40;;;;;;;;;;4938080;29;20047;-81
2022/05/23 20:47:40;;;;;;;10.57;8.73;;;;;;;;;;4938414;29;20107;-82
2022/05/23 20:50:10;;;;;;;11.90;9.95;;;;;;;;;;4937964;29;20436;-83
2022/05/23 20:52:39;;;;;;;10.40;9.40;;;;;;;;;;4938813;29;20066;-85
2022/05/23 20:55:07;;;;;;;11.23;9.50;;;;;;;;;;4938273;29;20028;-84